createdAt,value
2022-11-24T07:29:30.571Z,98.80
2022-11-24T07:32:02.137Z,98.90
2022-11-24T07:34:32.258Z,98.80
2022-11-24T07:36:59.494Z,98.50
2022-11-24T07:39:26.286Z,98.60
2022-11-24T07:41:53.174Z,98.40
2022-11-24T07:44:20.043Z,98.90
2022-11-24T07:46:46.959Z,98.90
2022-11-24T12:05:32.649Z,92.20
2022-11-24T12:08:21.110Z,91.40
2022-11-24T12:10:53.639Z,91.40
2022-11-24T12:13:20.402Z,91.90
2022-11-24T12:15:53.232Z,91.20
2022-11-24T12:18:57.962Z,91.50
2022-11-24T12:21:36.850Z,90.40
2022-11-24T12:24:45.257Z,90.20
2022-11-24T12:27:47.455Z,90.10
2022-11-24T12:30:20.571Z,90.60
2022-11-24T12:33:19.398Z,91.00
2022-11-24T12:36:08.063Z,90.60
2022-11-24T12:38:41.066Z,90.40
2022-11-24T12:44:00.218Z,90.30
2022-11-24T12:46:34.724Z,90.00
2022-11-24T12:49:19.631Z,90.50
2022-11-24T12:52:01.424Z,91.40
2022-11-24T12:54:36.693Z,91.50
2022-11-24T12:57:21.232Z,91.10
2022-11-24T13:00:06.939Z,91.30
2022-11-24T13:03:11.997Z,91.30
2022-11-24T13:06:08.980Z,91.10
2022-11-24T13:08:36.943Z,90.80
2022-11-24T13:11:21.858Z,90.70
2022-11-24T13:14:07.343Z,90.30
2022-11-24T13:16:37.017Z,90.50
2022-11-24T13:19:13.708Z,90.90
2022-11-24T13:21:40.595Z,90.50
2022-11-24T13:26:52.667Z,90.60
2022-11-24T13:29:31.258Z,90.90
2022-11-24T13:32:07.106Z,91.00
2022-11-24T13:34:42.900Z,90.80
2022-11-24T13:37:42.242Z,91.00
2022-11-24T13:40:12.360Z,91.20
2022-11-24T13:42:57.594Z,90.70
2022-11-24T13:45:40.054Z,90.70
2022-11-24T13:48:19.478Z,91.30
2022-11-24T13:50:58.229Z,90.80
2022-11-24T13:53:41.957Z,90.40
2022-11-24T13:56:30.310Z,90.60
2022-11-24T13:59:00.119Z,90.90
2022-11-24T14:01:36.240Z,90.90
2022-11-24T14:04:29.884Z,91.60
2022-11-24T14:07:09.141Z,90.80
2022-11-24T14:09:48.252Z,91.20
2022-11-24T14:12:23.380Z,91.10
2022-11-24T14:14:52.010Z,91.20
2022-11-24T14:17:24.606Z,91.00
2022-11-24T14:19:52.768Z,93.50
2022-11-24T14:22:34.799Z,95.90
2022-11-24T14:25:02.646Z,93.50
2022-11-24T14:27:38.454Z,93.60
2022-11-24T14:30:13.368Z,94.00
2022-11-24T14:32:42.222Z,92.90
2022-11-24T14:35:29.250Z,94.20
2022-11-24T14:37:56.495Z,94.80
2022-11-24T14:40:50.075Z,94.20
2022-11-24T14:43:33.094Z,93.00
2022-11-24T14:46:04.377Z,92.50
2022-11-24T14:48:36.681Z,92.50
2022-11-24T14:51:08.477Z,93.10
2022-11-24T14:53:35.959Z,93.30
2022-11-24T14:56:30.177Z,93.50
2022-11-24T14:58:58.841Z,94.00
2022-11-24T15:01:28.602Z,95.10
2022-11-24T15:04:26.616Z,96.60
2022-11-24T15:07:21.967Z,95.00
2022-11-24T15:09:50.104Z,94.30
2022-11-24T15:12:34.289Z,92.80
2022-11-24T15:15:05.810Z,93.30
2022-11-24T15:17:34.884Z,94.50
2022-11-24T15:20:09.698Z,93.70
2022-11-24T15:22:44.782Z,93.90
2022-11-24T15:25:33.529Z,95.70
2022-11-24T15:28:02.670Z,96.40
2022-11-24T15:30:30.574Z,94.80
2022-11-24T15:32:59.054Z,95.30
2022-11-24T15:35:29.551Z,95.10
2022-11-24T15:37:56.362Z,95.00
2022-11-24T15:40:23.797Z,95.90
2022-11-24T15:42:55.591Z,95.10
2022-11-24T15:45:26.277Z,94.70
2022-11-24T15:47:53.398Z,97.00
2022-11-24T15:50:23.066Z,97.20
2022-11-24T15:52:50.086Z,97.00
2022-11-24T15:55:22.025Z,95.10
2022-11-24T15:57:49.877Z,94.70
2022-11-24T16:00:19.525Z,95.10
2022-11-24T16:02:46.666Z,95.30
2022-11-24T16:05:14.650Z,95.20
2022-11-24T16:07:41.519Z,95.10
2022-11-24T16:10:32.706Z,95.20
2022-11-24T16:12:59.514Z,95.40
2022-11-24T16:15:26.354Z,95.30
2022-11-24T16:17:53.445Z,95.70
2022-11-24T16:20:20.485Z,95.40
2022-11-24T16:22:47.566Z,95.50
2022-11-24T16:25:14.867Z,95.60
2022-11-24T16:27:41.947Z,95.50
2022-11-24T16:30:12.162Z,95.60
2022-11-24T16:32:39.330Z,95.40
2022-11-24T16:35:06.658Z,95.40
2022-11-24T16:37:33.546Z,95.30
2022-11-24T16:40:02.532Z,95.50
2022-11-24T16:42:29.714Z,95.70
2022-11-24T16:44:57.429Z,95.60
2022-11-24T16:47:24.242Z,95.80
2022-11-24T16:49:51.052Z,95.80
2022-11-24T16:52:18.322Z,95.90
2022-11-24T16:54:48.278Z,96.00
2022-11-24T16:57:15.769Z,96.00
2022-11-24T16:59:43.547Z,96.30
2022-11-24T17:02:12.927Z,96.10
2022-11-24T17:04:40.327Z,96.10
2022-11-24T17:07:07.877Z,95.60
2022-11-24T17:09:40.293Z,95.10
2022-11-24T17:12:07.960Z,95.00
2022-11-24T17:14:35.145Z,95.90
2022-11-24T17:17:03.069Z,96.00
2022-11-24T17:19:31.844Z,95.80
2022-11-24T17:22:01.911Z,95.70
2022-11-24T17:24:28.758Z,96.00
2022-11-24T17:26:56.154Z,96.00
2022-11-24T17:29:25.841Z,95.80
2022-11-24T17:31:52.730Z,95.10
2022-11-24T17:34:19.938Z,95.00
2022-11-24T17:36:46.863Z,95.80
2022-11-24T17:39:13.706Z,96.00
2022-11-24T17:41:40.989Z,96.30
2022-11-24T17:44:08.677Z,96.50
2022-11-24T17:46:37.159Z,96.60
2022-11-24T17:49:06.023Z,96.40
2022-11-24T17:51:32.928Z,95.40
2022-11-24T17:54:01.235Z,96.70
2022-11-24T17:56:32.963Z,96.00
2022-11-24T17:59:00.807Z,96.60
2022-11-24T18:01:31.560Z,97.00
2022-11-24T18:03:58.870Z,96.80
2022-11-24T18:06:26.315Z,96.90
2022-11-24T18:08:54.188Z,97.60
2022-11-24T18:11:31.085Z,99.90
2022-11-24T18:14:02.147Z,98.20
2022-11-24T18:16:31.387Z,98.20
2022-11-24T18:19:09.829Z,98.00
2022-11-24T18:21:45.141Z,97.00
2022-11-24T18:24:13.020Z,97.00
2022-11-24T18:26:41.903Z,96.60
2022-11-24T18:29:09.871Z,97.80
2022-11-24T18:31:39.506Z,96.90
2022-11-24T18:34:06.829Z,96.80
2022-11-24T18:36:34.673Z,98.30
2022-11-24T18:39:03.622Z,97.00
2022-11-24T18:41:30.664Z,96.60
2022-11-24T18:43:57.443Z,96.90
2022-11-24T18:46:27.073Z,97.10
2022-11-24T18:48:54.844Z,97.30
2022-11-24T18:51:23.101Z,97.20
2022-11-24T18:53:58.072Z,97.30
2022-11-24T18:56:25.574Z,97.30
2022-11-24T18:58:54.219Z,97.40
2022-11-24T19:01:26.245Z,97.20
2022-11-24T19:03:58.420Z,96.70
2022-11-24T19:06:31.884Z,96.90
2022-11-24T19:09:00.443Z,97.10
2022-11-24T19:11:33.687Z,96.80
2022-11-24T19:14:01.781Z,96.80
2022-11-24T19:16:29.153Z,97.40
2022-11-24T19:18:59.979Z,97.50
2022-11-24T19:21:27.694Z,97.60
2022-11-24T19:23:57.482Z,97.80
2022-11-24T19:26:26.771Z,97.80
2022-11-24T19:28:53.663Z,97.40
2022-11-24T19:31:20.611Z,97.00
2022-11-24T19:33:47.574Z,96.90
2022-11-24T19:36:18.277Z,97.00
2022-11-24T19:38:53.489Z,96.50
2022-11-24T19:41:22.595Z,95.80
2022-11-24T19:43:49.997Z,96.80
2022-11-24T19:46:19.013Z,97.50
2022-11-24T19:48:50.110Z,97.20
2022-11-24T19:51:19.541Z,97.00
2022-11-24T19:53:46.966Z,97.00
2022-11-24T19:56:17.334Z,97.50
2022-11-24T19:58:44.377Z,97.20
2022-11-24T20:01:16.058Z,97.10
2022-11-24T20:03:44.677Z,96.50
2022-11-24T20:06:12.869Z,96.40
2022-11-24T20:08:40.860Z,96.70
2022-11-24T20:11:08.933Z,97.20
2022-11-24T20:13:37.559Z,96.90
2022-11-24T20:16:05.241Z,99.90
2022-11-24T20:18:36.334Z,99.90
2022-11-24T20:21:17.610Z,99.90
2022-11-24T20:23:46.182Z,97.50
2022-11-24T20:26:19.710Z,96.80
2022-11-24T20:28:47.234Z,96.60
2022-11-24T20:31:20.690Z,96.90
2022-11-24T20:33:47.518Z,96.40
2022-11-24T20:36:16.941Z,96.90
2022-11-24T20:38:45.175Z,97.30
2022-11-24T20:41:14.506Z,96.90
2022-11-24T20:43:42.349Z,97.40
2022-11-24T20:46:15.255Z,97.10
2022-11-24T20:48:42.559Z,96.90
2022-11-24T20:51:11.790Z,96.30
2022-11-24T20:53:39.053Z,95.70
2022-11-24T20:56:12.495Z,95.00
2022-11-24T20:58:40.175Z,95.00
2022-11-24T21:01:12.805Z,95.90
2022-11-24T21:03:43.297Z,96.20
2022-11-24T21:06:11.724Z,96.50
2022-11-24T21:08:40.571Z,97.00
2022-11-24T21:11:09.645Z,96.10
2022-11-24T21:13:38.334Z,97.00
2022-11-24T21:16:26.565Z,97.50
2022-11-24T21:18:57.385Z,97.50
2022-11-24T21:21:25.672Z,97.10
2022-11-24T21:23:52.564Z,96.80
2022-11-24T21:26:20.016Z,96.60
2022-11-24T21:28:48.134Z,96.50
2022-11-24T21:31:17.456Z,96.40
2022-11-24T21:33:54.345Z,96.30
2022-11-24T21:36:23.722Z,96.30
2022-11-24T21:38:56.148Z,96.10
2022-11-24T21:41:27.567Z,96.10
2022-11-24T21:44:00.486Z,96.00
2022-11-24T21:46:29.041Z,96.30
2022-11-24T21:48:55.876Z,96.20
2022-11-24T21:51:22.723Z,96.80
2022-11-24T21:53:49.578Z,97.40
2022-11-24T21:56:18.662Z,97.00
2022-11-24T21:58:47.169Z,97.00
2022-11-24T22:01:16.048Z,96.50
